createdAt,value
2019-01-29T00:01:54.904Z,12.82
2019-01-29T00:04:20.989Z,12.30
2019-01-29T00:06:47.142Z,11.95
2019-01-29T00:09:13.184Z,12.55
2019-01-29T00:11:39.455Z,13.15
2019-01-29T00:14:05.528Z,19.15
2019-01-29T00:16:31.578Z,12.43
2019-01-29T00:18:58.292Z,14.38
2019-01-29T00:21:24.529Z,15.72
2019-01-29T00:23:50.631Z,17.20
2019-01-29T00:26:16.777Z,14.85
2019-01-29T00:28:43.292Z,17.07
2019-01-29T00:31:09.377Z,12.17
2019-01-29T00:33:35.459Z,12.03
2019-01-29T00:36:01.506Z,13.58
2019-01-29T00:38:27.673Z,16.15
2019-01-29T00:40:53.845Z,13.30
2019-01-29T00:43:20.142Z,16.80
2019-01-29T00:45:46.311Z,14.10
2019-01-29T00:48:12.574Z,15.20
2019-01-29T00:50:39.880Z,13.13
2019-01-29T00:53:06.012Z,14.13
2019-01-29T00:55:32.133Z,15.43
2019-01-29T00:57:58.398Z,13.93
2019-01-29T01:00:24.694Z,14.85
2019-01-29T01:02:50.905Z,17.55
2019-01-29T01:05:17.571Z,10.55
2019-01-29T01:07:43.776Z,13.22
2019-01-29T01:10:13.074Z,13.62
2019-01-29T01:12:39.313Z,13.68
2019-01-29T01:15:08.397Z,20.08
2019-01-29T01:17:34.520Z,10.25
2019-01-29T01:20:01.394Z,12.77
2019-01-29T01:22:27.520Z,14.60
2019-01-29T01:24:53.725Z,13.50
2019-01-29T01:27:19.900Z,14.05
2019-01-29T01:29:46.301Z,13.28
2019-01-29T01:32:15.538Z,12.88
2019-01-29T01:34:41.874Z,11.68
2019-01-29T01:37:08.239Z,17.48
2019-01-29T01:39:34.573Z,19.15
2019-01-29T01:42:00.858Z,18.07
2019-01-29T01:44:27.080Z,16.17
2019-01-29T01:46:53.381Z,17.57
2019-01-29T01:49:22.784Z,17.23
2019-01-29T01:51:48.987Z,14.98
2019-01-29T01:54:15.209Z,13.28
2019-01-29T01:56:41.335Z,12.23
2019-01-29T01:59:07.458Z,19.90
2019-01-29T02:01:33.741Z,14.98
2019-01-29T02:04:00.033Z,14.93
2019-01-29T02:06:26.250Z,15.88
2019-01-29T02:08:52.362Z,17.92
2019-01-29T02:11:18.504Z,18.37
2019-01-29T02:13:44.622Z,13.10
2019-01-29T02:16:10.744Z,15.63
2019-01-29T02:18:36.903Z,17.40
2019-01-29T02:21:03.107Z,14.58
2019-01-29T02:23:29.190Z,17.62
2019-01-29T02:25:55.354Z,16.37
2019-01-29T02:28:21.601Z,18.87
2019-01-29T02:30:47.821Z,14.35
2019-01-29T02:33:14.401Z,15.05
2019-01-29T02:35:40.604Z,15.20
2019-01-29T02:38:06.687Z,13.38
2019-01-29T02:40:32.774Z,14.63
2019-01-29T02:42:58.921Z,17.50
2019-01-29T02:45:25.265Z,16.62
2019-01-29T02:47:51.465Z,11.57
2019-01-29T02:50:17.697Z,15.53
2019-01-29T02:52:44.136Z,14.63
2019-01-29T02:55:12.045Z,16.12
2019-01-29T02:57:38.356Z,14.73
2019-01-29T03:00:16.654Z,12.78
2019-01-29T03:02:43.343Z,10.30
2019-01-29T03:05:12.283Z,12.75
2019-01-29T03:07:39.130Z,13.58
2019-01-29T03:10:11.494Z,15.83
2019-01-29T03:12:37.572Z,14.43
2019-01-29T03:15:07.900Z,17.27
2019-01-29T03:17:34.039Z,15.15
2019-01-29T03:20:00.265Z,15.03
2019-01-29T03:22:26.425Z,17.80
2019-01-29T03:24:52.538Z,17.57
2019-01-29T03:27:18.693Z,19.85
2019-01-29T03:29:44.782Z,17.37
2019-01-29T03:32:10.873Z,18.65
2019-01-29T03:34:36.916Z,15.88
2019-01-29T03:37:03.178Z,12.00
2019-01-29T03:39:29.270Z,14.18
2019-01-29T03:41:55.440Z,12.77
2019-01-29T03:44:21.662Z,10.60
2019-01-29T03:46:47.786Z,13.85
2019-01-29T03:49:13.977Z,19.05
2019-01-29T03:51:40.120Z,8.90
2019-01-29T03:54:06.322Z,16.20
2019-01-29T03:56:38.219Z,12.77
2019-01-29T03:59:04.451Z,15.10
2019-01-29T04:01:37.295Z,12.07
2019-01-29T04:04:03.415Z,13.53
2019-01-29T04:06:29.452Z,18.92
2019-01-29T04:08:55.880Z,15.93
2019-01-29T04:11:22.019Z,10.85
2019-01-29T04:13:48.045Z,11.60
2019-01-29T04:16:14.273Z,14.38
2019-01-29T04:18:40.391Z,10.45
2019-01-29T04:21:07.035Z,12.73
2019-01-29T04:23:33.377Z,17.27
2019-01-29T04:25:59.484Z,14.45
2019-01-29T04:28:25.515Z,16.57
2019-01-29T04:30:51.619Z,14.95
2019-01-29T04:33:17.766Z,10.85
2019-01-29T04:35:43.823Z,13.62
2019-01-29T04:38:09.891Z,13.00
2019-01-29T04:40:36.017Z,14.60
2019-01-29T04:43:02.093Z,10.85
2019-01-29T04:45:28.150Z,12.50
2019-01-29T04:47:54.223Z,15.13
2019-01-29T04:50:20.452Z,11.87
2019-01-29T04:52:46.562Z,25.33
2019-01-29T04:55:14.793Z,29.65
2019-01-29T04:57:40.976Z,14.65
2019-01-29T05:00:10.689Z,14.15
2019-01-29T05:02:36.923Z,13.65
2019-01-29T05:05:06.499Z,10.50
2019-01-29T05:07:32.683Z,12.43
2019-01-29T05:09:58.928Z,12.87
2019-01-29T05:12:24.998Z,8.98
2019-01-29T05:14:51.158Z,10.75
2019-01-29T05:17:17.328Z,10.30
2019-01-29T05:19:43.472Z,11.90
2019-01-29T05:22:09.545Z,18.42
2019-01-29T05:24:35.764Z,11.70
2019-01-29T05:27:02.142Z,10.98
2019-01-29T05:29:28.403Z,13.08
2019-01-29T05:31:54.880Z,11.03
2019-01-29T05:34:21.032Z,13.65
2019-01-29T05:36:47.132Z,11.83
2019-01-29T05:39:13.207Z,12.20
2019-01-29T05:41:39.377Z,13.65
2019-01-29T05:44:08.492Z,7.80
2019-01-29T05:46:34.625Z,11.93
2019-01-29T05:49:04.929Z,13.35
2019-01-29T05:51:31.004Z,10.63
2019-01-29T05:53:57.142Z,9.63
2019-01-29T05:56:23.349Z,28.57
2019-01-29T05:58:56.601Z,27.58
2019-01-29T06:01:22.729Z,14.70
2019-01-29T06:03:48.869Z,11.43
2019-01-29T06:06:15.081Z,11.00
2019-01-29T06:08:41.204Z,9.18
2019-01-29T06:11:07.273Z,14.03
2019-01-29T06:13:33.417Z,10.78
2019-01-29T06:15:59.662Z,9.88
2019-01-29T06:18:34.059Z,11.10
2019-01-29T06:21:00.190Z,11.25
2019-01-29T06:23:26.435Z,15.75
2019-01-29T06:25:52.618Z,13.20
2019-01-29T06:28:20.554Z,11.08
2019-01-29T06:30:46.756Z,10.28
2019-01-29T06:33:12.895Z,9.60
2019-01-29T06:35:38.987Z,10.98
2019-01-29T06:38:05.496Z,10.05
2019-01-29T06:40:31.784Z,17.73
2019-01-29T06:42:58.034Z,11.97
2019-01-29T06:45:25.204Z,12.15
2019-01-29T06:47:51.545Z,14.10
2019-01-29T06:50:25.562Z,12.07
2019-01-29T06:52:55.341Z,16.87
2019-01-29T06:55:22.493Z,12.05
2019-01-29T06:57:55.066Z,17.90
2019-01-29T07:00:23.398Z,19.12
2019-01-29T07:02:49.823Z,10.08
2019-01-29T07:05:16.085Z,20.40
2019-01-29T07:07:42.177Z,19.77
2019-01-29T07:10:14.882Z,12.90
2019-01-29T07:12:40.913Z,16.40
2019-01-29T07:15:12.623Z,12.20
2019-01-29T07:17:38.780Z,12.73
2019-01-29T07:20:08.130Z,13.22
2019-01-29T07:22:34.882Z,12.10
2019-01-29T07:25:01.190Z,15.35
2019-01-29T07:27:27.219Z,14.73
2019-01-29T07:29:53.318Z,19.00
2019-01-29T07:32:19.399Z,14.75
2019-01-29T07:34:45.512Z,13.37
2019-01-29T07:37:11.618Z,14.47
2019-01-29T07:39:37.687Z,15.08
2019-01-29T07:42:04.392Z,11.60
2019-01-29T07:44:30.993Z,15.35
2019-01-29T07:46:57.154Z,16.13
2019-01-29T07:49:23.180Z,12.55
2019-01-29T07:51:49.311Z,13.60
2019-01-29T07:54:15.475Z,13.05
2019-01-29T07:56:41.706Z,12.93
2019-01-29T07:59:07.916Z,11.63
2019-01-29T08:01:34.038Z,10.82
2019-01-29T08:04:00.113Z,13.43
2019-01-29T08:06:26.172Z,13.32
2019-01-29T08:08:52.227Z,13.28
2019-01-29T08:11:18.271Z,13.95
2019-01-29T08:13:44.342Z,10.28
2019-01-29T08:16:10.455Z,13.78
2019-01-29T08:18:36.626Z,12.37
2019-01-29T08:21:02.945Z,12.80
2019-01-29T08:23:29.057Z,16.62
2019-01-29T08:25:55.123Z,12.17
2019-01-29T08:28:21.208Z,9.15
2019-01-29T08:30:47.349Z,7.55
2019-01-29T08:33:13.611Z,9.00
2019-01-29T08:35:41.514Z,11.05
2019-01-29T08:38:08.089Z,12.30
2019-01-29T08:40:34.261Z,13.48
2019-01-29T08:43:00.312Z,13.90
2019-01-29T08:45:29.574Z,10.72
2019-01-29T08:47:55.696Z,11.88
2019-01-29T08:50:23.259Z,9.53
2019-01-29T08:52:49.716Z,10.40
2019-01-29T08:55:15.838Z,15.98
2019-01-29T08:57:41.885Z,12.60
2019-01-29T09:00:11.668Z,9.38
2019-01-29T09:02:37.726Z,13.28
2019-01-29T09:05:06.503Z,14.20
2019-01-29T09:07:32.752Z,16.10
2019-01-29T09:09:58.983Z,14.30
2019-01-29T09:12:27.009Z,17.40
2019-01-29T09:14:53.081Z,12.70
2019-01-29T09:17:19.408Z,19.57
2019-01-29T09:19:45.434Z,16.87
2019-01-29T09:22:11.482Z,18.12
2019-01-29T09:24:37.863Z,15.70
2019-01-29T09:27:03.904Z,13.70
2019-01-29T09:29:29.992Z,12.93
2019-01-29T09:31:56.244Z,15.20
2019-01-29T09:34:22.289Z,15.93
2019-01-29T09:36:48.377Z,14.43
2019-01-29T09:39:14.457Z,13.43
2019-01-29T09:41:40.605Z,16.55
2019-01-29T09:44:06.648Z,9.93
2019-01-29T09:46:32.693Z,12.83
2019-01-29T09:48:58.784Z,11.60
2019-01-29T09:51:24.873Z,14.60
2019-01-29T09:53:50.942Z,14.95
2019-01-29T09:56:17.002Z,10.60
2019-01-29T09:58:43.130Z,12.47
2019-01-29T10:01:09.258Z,17.48
2019-01-29T10:03:35.388Z,15.65
2019-01-29T10:06:01.531Z,18.67
2019-01-29T10:08:27.569Z,15.20
2019-01-29T10:10:53.686Z,13.65
2019-01-29T10:13:19.795Z,13.25
2019-01-29T10:15:46.046Z,14.15
2019-01-29T10:18:12.077Z,14.63
2019-01-29T10:20:38.367Z,14.23
2019-01-29T10:23:04.515Z,15.43
2019-01-29T10:25:37.565Z,15.43
2019-01-29T10:27:58.687Z,11.60
2019-01-29T10:30:25.466Z,17.17
2019-01-29T10:32:51.529Z,14.05
2019-01-29T10:37:04.747Z,11.28
2019-01-29T10:39:31.105Z,9.45
2019-01-29T10:41:57.227Z,11.50
2019-01-29T10:44:23.288Z,13.80
2019-01-29T10:46:49.426Z,14.90
2019-01-29T10:49:15.551Z,11.95
2019-01-29T10:51:41.601Z,13.43
2019-01-29T10:54:07.728Z,24.25
2019-01-29T10:56:34.039Z,14.20
2019-01-29T10:59:00.116Z,13.20
2019-01-29T11:01:26.450Z,15.10
2019-01-29T11:03:52.586Z,13.13
2019-01-29T11:06:18.617Z,12.43
2019-01-29T11:08:44.658Z,9.05
2019-01-29T11:11:10.752Z,10.40
2019-01-29T11:13:36.805Z,15.17
2019-01-29T11:16:03.405Z,13.28
2019-01-29T11:18:29.534Z,13.30
2019-01-29T11:20:55.624Z,9.35
2019-01-29T11:23:21.937Z,14.20
2019-01-29T11:25:55.735Z,13.45
2019-01-29T11:28:16.136Z,13.72
2019-01-29T11:30:42.334Z,18.30
2019-01-29T11:33:08.892Z,15.53
2019-01-29T11:35:35.613Z,14.60
2019-01-29T11:38:01.907Z,19.07
2019-01-29T11:40:29.961Z,14.90
2019-01-29T11:42:56.361Z,15.53
2019-01-29T11:45:25.517Z,14.68
2019-01-29T11:47:51.548Z,18.20
2019-01-29T11:50:17.804Z,19.80
2019-01-29T11:52:43.857Z,14.55
2019-01-29T11:55:10.981Z,16.17
2019-01-29T11:57:37.100Z,15.45
2019-01-29T12:00:14.008Z,11.73
2019-01-29T12:02:40.059Z,14.65
2019-01-29T12:05:06.369Z,15.50
2019-01-29T12:07:32.592Z,13.40
2019-01-29T12:09:58.681Z,14.80
2019-01-29T12:12:24.767Z,14.13
2019-01-29T12:14:50.842Z,14.35
2019-01-29T12:17:16.940Z,17.12
2019-01-29T12:19:42.999Z,14.00
2019-01-29T12:22:09.082Z,14.65
2019-01-29T12:24:35.212Z,17.50
2019-01-29T12:27:01.357Z,15.83
2019-01-29T12:29:27.442Z,16.30
2019-01-29T12:31:53.512Z,15.18
2019-01-29T12:34:19.607Z,16.80
2019-01-29T12:36:45.729Z,16.42
2019-01-29T12:39:11.894Z,20.33
2019-01-29T12:41:37.967Z,18.62
2019-01-29T12:44:04.161Z,16.77
2019-01-29T12:46:30.491Z,15.70
2019-01-29T12:48:56.561Z,20.40
2019-01-29T12:51:24.562Z,16.90
2019-01-29T12:53:50.634Z,17.35
2019-01-29T12:56:21.593Z,25.82
2019-01-29T12:58:44.775Z,23.10
2019-01-29T13:01:10.870Z,18.35
2019-01-29T13:03:36.953Z,19.50
2019-01-29T13:06:03.449Z,20.57
2019-01-29T13:08:29.630Z,22.48
2019-01-29T13:10:55.884Z,22.10
2019-01-29T13:13:22.427Z,20.55
2019-01-29T13:15:48.590Z,16.05
2019-01-29T13:18:14.636Z,24.47
2019-01-29T13:20:40.726Z,21.43
2019-01-29T13:23:06.964Z,21.60
2019-01-29T13:25:33.122Z,14.50
2019-01-29T13:27:59.175Z,16.93
2019-01-29T13:30:30.518Z,16.60
2019-01-29T13:32:56.747Z,15.50
2019-01-29T13:35:26.630Z,19.67
2019-01-29T13:37:52.680Z,19.20
2019-01-29T13:40:18.829Z,22.37
2019-01-29T13:42:44.894Z,23.07
2019-01-29T13:45:13.618Z,20.15
2019-01-29T13:47:39.981Z,16.00
2019-01-29T13:50:15.875Z,16.90
2019-01-29T13:52:41.921Z,22.10
2019-01-29T13:55:11.216Z,16.50
2019-01-29T13:57:37.347Z,26.48
2019-01-29T14:00:07.335Z,15.50
2019-01-29T14:02:33.434Z,16.50
2019-01-29T14:04:59.500Z,14.80
2019-01-29T14:07:25.580Z,18.87
2019-01-29T14:09:51.762Z,16.40
2019-01-29T14:12:17.851Z,17.20
2019-01-29T14:14:44.163Z,15.95
2019-01-29T14:17:12.525Z,14.98
2019-01-29T14:19:38.756Z,18.75
2019-01-29T14:22:05.078Z,17.70
2019-01-29T14:24:31.138Z,13.43
2019-01-29T14:26:57.230Z,15.80
2019-01-29T14:29:23.307Z,21.30
2019-01-29T14:31:49.446Z,17.67
2019-01-29T14:34:15.910Z,17.85
2019-01-29T14:36:42.021Z,14.23
2019-01-29T14:39:14.999Z,16.97
2019-01-29T14:41:41.098Z,17.73
2019-01-29T14:44:07.590Z,12.90
2019-01-29T14:46:33.735Z,16.67
2019-01-29T14:48:59.959Z,18.80
2019-01-29T14:51:26.139Z,15.93
2019-01-29T14:53:52.226Z,15.00
2019-01-29T14:56:18.478Z,14.65
2019-01-29T14:58:44.559Z,15.25
2019-01-29T15:01:10.912Z,15.25
2019-01-29T15:03:37.257Z,17.07
2019-01-29T15:06:03.726Z,12.45
2019-01-29T15:08:29.986Z,15.38
2019-01-29T15:10:56.153Z,14.68
2019-01-29T15:13:22.212Z,16.45
2019-01-29T15:16:12.284Z,18.12
2019-01-29T15:18:40.341Z,14.30
2019-01-29T15:21:06.404Z,18.20
2019-01-29T15:23:32.550Z,13.62
2019-01-29T15:25:58.676Z,16.40
2019-01-29T15:28:24.857Z,15.35
2019-01-29T15:30:50.941Z,14.43
2019-01-29T15:33:17.089Z,14.43
2019-01-29T15:35:43.132Z,14.73
2019-01-29T15:38:09.273Z,21.48
2019-01-29T15:40:35.447Z,17.85
2019-01-29T15:43:01.719Z,18.35
2019-01-29T15:45:28.688Z,19.57
2019-01-29T15:47:54.900Z,17.15
2019-01-29T15:50:23.839Z,17.97
2019-01-29T15:52:49.997Z,14.33
2019-01-29T15:55:17.822Z,20.17
2019-01-29T15:57:44.976Z,20.87
2019-01-29T16:00:14.820Z,21.00
2019-01-29T16:02:40.897Z,21.23
2019-01-29T16:05:13.705Z,18.90
2019-01-29T16:07:39.864Z,20.25
2019-01-29T16:10:09.737Z,19.95
2019-01-29T16:12:35.931Z,20.20
2019-01-29T16:15:05.569Z,21.95
2019-01-29T16:17:31.627Z,21.25
2019-01-29T16:19:57.687Z,21.00
2019-01-29T16:22:26.347Z,20.95
2019-01-29T16:24:52.400Z,20.20
2019-01-29T16:27:22.851Z,21.12
2019-01-29T16:29:46.410Z,21.82
2019-01-29T16:32:12.450Z,22.23
2019-01-29T16:34:38.501Z,23.07
2019-01-29T16:37:04.567Z,23.98
2019-01-29T16:39:30.617Z,25.92
2019-01-29T16:41:56.728Z,23.18
2019-01-29T16:44:22.761Z,21.93
2019-01-29T16:46:49.400Z,23.57
2019-01-29T16:49:15.458Z,24.90
2019-01-29T16:51:42.630Z,23.47
2019-01-29T16:54:08.908Z,22.35
2019-01-29T16:56:35.138Z,26.07
2019-01-29T16:59:01.516Z,27.42
2019-01-29T17:01:27.747Z,27.55
2019-01-29T17:03:53.920Z,23.27
2019-01-29T17:06:19.954Z,25.95
2019-01-29T17:08:46.177Z,25.20
2019-01-29T17:11:14.145Z,27.52
2019-01-29T17:13:40.251Z,25.75
2019-01-29T17:16:06.317Z,28.23
2019-01-29T17:18:32.443Z,26.23
2019-01-29T17:20:58.562Z,27.67
2019-01-29T17:23:24.777Z,27.70
2019-01-29T17:25:50.987Z,26.37
2019-01-29T17:28:17.180Z,26.82
2019-01-29T17:30:43.947Z,22.37
2019-01-29T17:33:10.737Z,26.70
2019-01-29T17:35:38.648Z,22.60
2019-01-29T17:38:04.941Z,26.23
2019-01-29T17:40:31.050Z,26.93
2019-01-29T17:42:57.598Z,25.50
2019-01-29T17:45:26.239Z,29.95
2019-01-29T17:47:52.267Z,26.93
2019-01-29T17:50:24.699Z,24.40
2019-01-29T17:52:50.763Z,26.95
2019-01-29T17:55:17.528Z,27.52
2019-01-29T17:57:50.502Z,23.37
2019-01-29T18:00:21.126Z,27.15
2019-01-29T18:02:47.165Z,26.40
2019-01-29T18:05:13.452Z,32.45
2019-01-29T18:07:39.916Z,25.48
2019-01-29T18:10:09.366Z,28.00
2019-01-29T18:12:35.409Z,26.45
2019-01-29T18:15:02.201Z,25.75
2019-01-29T18:17:28.745Z,28.65
2019-01-29T18:19:54.798Z,29.57
2019-01-29T18:22:20.839Z,29.77
2019-01-29T18:24:46.918Z,26.73
2019-01-29T18:27:12.945Z,32.63
2019-01-29T18:29:39.187Z,24.98
2019-01-29T18:32:05.274Z,30.00
2019-01-29T18:34:31.446Z,26.93
2019-01-29T18:36:57.577Z,30.35
2019-01-29T18:39:23.664Z,28.60
2019-01-29T18:41:49.709Z,26.97
2019-01-29T18:44:16.045Z,30.00
2019-01-29T18:46:42.065Z,29.57
2019-01-29T18:49:08.101Z,33.20
2019-01-29T18:51:34.185Z,34.08
2019-01-29T18:54:00.248Z,32.05
2019-01-29T18:56:26.308Z,29.03
2019-01-29T18:58:52.476Z,25.27
2019-01-29T19:01:18.589Z,30.32
2019-01-29T19:03:44.909Z,30.70
2019-01-29T19:06:10.972Z,31.37
2019-01-29T19:08:41.870Z,30.67
2019-01-29T19:11:08.093Z,29.10
2019-01-29T19:13:34.124Z,29.80
2019-01-29T19:16:00.574Z,31.02
2019-01-29T19:18:26.676Z,31.95
2019-01-29T19:20:52.737Z,33.15
2019-01-29T19:23:18.892Z,32.53
2019-01-29T19:25:46.140Z,29.42
2019-01-29T19:28:21.418Z,33.35
2019-01-29T19:30:40.271Z,31.87
2019-01-29T19:33:06.363Z,28.83
2019-01-29T19:35:32.551Z,33.40
2019-01-29T19:37:59.026Z,27.70
2019-01-29T19:40:25.197Z,31.52
2019-01-29T19:42:51.250Z,29.63
2019-01-29T19:45:21.214Z,35.58
2019-01-29T19:47:47.643Z,29.98
2019-01-29T19:50:17.126Z,31.25
2019-01-29T19:52:43.606Z,34.88
2019-01-29T19:55:09.768Z,39.60
2019-01-29T19:57:35.902Z,42.05
2019-01-29T20:00:04.729Z,38.20
2019-01-29T20:02:31.243Z,38.67
2019-01-29T20:04:57.638Z,33.60
2019-01-29T20:07:23.696Z,38.15
2019-01-29T20:09:49.888Z,34.80
2019-01-29T20:12:16.079Z,40.03
2019-01-29T20:14:42.150Z,37.45
2019-01-29T20:17:08.267Z,41.70
2019-01-29T20:19:34.464Z,38.53
2019-01-29T20:22:00.513Z,39.92
2019-01-29T20:24:26.675Z,43.87
2019-01-29T20:26:52.680Z,38.55
2019-01-29T20:29:18.889Z,40.33
2019-01-29T20:31:45.301Z,44.23
2019-01-29T20:34:11.562Z,46.15
2019-01-29T20:36:37.703Z,45.63
2019-01-29T20:39:06.165Z,42.60
2019-01-29T20:41:32.305Z,39.00
2019-01-29T20:43:58.377Z,46.00
2019-01-29T20:46:24.530Z,41.33
2019-01-29T20:48:50.579Z,42.90
2019-01-29T20:51:16.722Z,47.85
2019-01-29T20:53:42.810Z,42.03
2019-01-29T20:56:08.929Z,44.67
2019-01-29T20:58:35.009Z,59.83
2019-01-29T21:01:01.316Z,50.88
2019-01-29T21:03:27.549Z,49.42
2019-01-29T21:05:53.598Z,44.58
2019-01-29T21:08:19.661Z,44.13
2019-01-29T21:10:46.188Z,45.88
2019-01-29T21:13:12.252Z,45.07
2019-01-29T21:15:38.903Z,40.28
2019-01-29T21:18:05.307Z,43.05
2019-01-29T21:20:31.639Z,43.05
2019-01-29T21:22:58.092Z,45.78
2019-01-29T21:25:24.225Z,45.00
2019-01-29T21:27:50.473Z,42.13
2019-01-29T21:30:29.141Z,49.03
2019-01-29T21:32:58.611Z,46.30
2019-01-29T21:35:24.854Z,50.83
2019-01-29T21:37:51.361Z,47.15
2019-01-29T21:40:18.025Z,53.17
2019-01-29T21:42:44.226Z,43.83
2019-01-29T21:45:15.881Z,49.23
2019-01-29T21:47:42.033Z,54.88
2019-01-29T21:50:14.129Z,49.23
2019-01-29T21:52:40.228Z,50.60
2019-01-29T21:55:08.872Z,46.60
2019-01-29T21:57:34.929Z,45.52
2019-01-29T22:00:00.996Z,49.98
2019-01-29T22:02:27.049Z,50.17
2019-01-29T22:04:53.126Z,51.95
2019-01-29T22:07:19.645Z,50.00
2019-01-29T22:09:46.122Z,51.98
2019-01-29T22:12:12.170Z,47.38
2019-01-29T22:14:38.221Z,56.75
2019-01-29T22:17:04.340Z,56.75
2019-01-29T22:19:30.886Z,51.58
2019-01-29T22:21:57.156Z,51.90
2019-01-29T22:24:23.504Z,54.33
2019-01-29T22:26:49.909Z,51.95
2019-01-29T22:29:23.150Z,48.58
2019-01-29T22:31:43.893Z,48.10
2019-01-29T22:34:10.014Z,51.70
2019-01-29T22:36:36.125Z,56.02
2019-01-29T22:39:06.061Z,49.58
2019-01-29T22:41:32.155Z,51.23
2019-01-29T22:43:58.230Z,48.63
2019-01-29T22:46:24.329Z,54.45
2019-01-29T22:48:50.400Z,52.08
2019-01-29T22:51:16.440Z,52.78
2019-01-29T22:53:42.704Z,54.40
2019-01-29T22:56:08.798Z,52.08
2019-01-29T22:58:34.983Z,54.67
2019-01-29T23:01:04.905Z,51.88
2019-01-29T23:03:37.364Z,86.00
2019-01-29T23:06:19.669Z,53.68
2019-01-29T23:08:45.705Z,56.10
2019-01-29T23:11:12.118Z,49.58
2019-01-29T23:13:38.182Z,54.00
2019-01-29T23:16:04.511Z,53.23
2019-01-29T23:18:30.648Z,56.80
2019-01-29T23:20:56.736Z,56.05
2019-01-29T23:23:23.036Z,51.18
2019-01-29T23:25:49.084Z,56.77
2019-01-29T23:28:15.135Z,46.23
2019-01-29T23:30:41.516Z,52.65
2019-01-29T23:33:07.717Z,53.07
2019-01-29T23:35:33.800Z,54.70
2019-01-29T23:37:59.872Z,52.58
2019-01-29T23:40:25.917Z,55.60
2019-01-29T23:42:51.986Z,53.63
2019-01-29T23:45:18.252Z,50.43
2019-01-29T23:47:44.324Z,54.13
2019-01-29T23:50:12.999Z,57.27
2019-01-29T23:52:39.144Z,56.10
2019-01-29T23:55:06.708Z,59.50
2019-01-29T23:57:32.767Z,56.93
2019-01-29T23:59:58.930Z,60.60
